sensor_id;sensor_type;location;lat;lon;timestamp;P1;durP1;ratioP1;P2;durP2;ratioP2
6561;SDS011;3314;50.890;4.722;2022-08-19T00:01:10;11.8;;;5.5;;
6561;SDS011;3314;50.890;4.722;2022-08-19T00:03:10;17.7;;;6.2;;
6561;SDS011;3314;50.890;4.722;2022-08-19T00:05:10;11.4;;;5.3;;
6561;SDS011;3314;50.890;4.722;2022-08-19T00:07:10;14.6;;;6.2;;
6561;SDS011;3314;50.890;4.722;2022-08-19T00:09:10;11.9;;;5.4;;
6561;SDS011;3314;50.890;4.722;2022-08-19T00:11:11;12.2;;;5.2;;
6561;SDS011;3314;50.890;4.722;2022-08-19T00:13:10;13.0;;;5.4;;
6561;SDS011;3314;50.890;4.722;2022-08-19T00:15:12;12.7;;;5.6;;
6561;SDS011;3314;50.890;4.722;2022-08-19T00:17:13;11.8;;;5.1;;
6561;SDS011;3314;50.890;4.722;2022-08-19T00:19:13;12.5;;;6.0;;
6561;SDS011;3314;50.890;4.722;2022-08-19T00:21:13;12.6;;;6.0;;
6561;SDS011;3314;50.890;4.722;2022-08-19T00:23:13;13.4;;;5.7;;
6561;SDS011;3314;50.890;4.722;2022-08-19T00:25:13;12.8;;;5.8;;
6561;SDS011;3314;50.890;4.722;2022-08-19T00:27:13;14.2;;;6.2;;
6561;SDS011;3314;50.890;4.722;2022-08-19T00:29:14;15.9;;;5.9;;
6561;SDS011;3314;50.890;4.722;2022-08-19T00:31:14;12.4;;;6.0;;
6561;SDS011;3314;50.890;4.722;2022-08-19T00:33:14;14.1;;;6.7;;
6561;SDS011;3314;50.890;4.722;2022-08-19T00:35:04;14.0;;;5.9;;
6561;SDS011;3314;50.890;4.722;2022-08-19T00:37:04;16.4;;;6.6;;
6561;SDS011;3314;50.890;4.722;2022-08-19T00:39:04;14.2;;;6.6;;
6561;SDS011;3314;50.890;4.722;2022-08-19T00:41:06;15.1;;;7.4;;
6561;SDS011;3314;50.890;4.722;2022-08-19T00:43:09;16.0;;;7.6;;
6561;SDS011;3314;50.890;4.722;2022-08-19T00:45:10;16.5;;;7.9;;
6561;SDS011;3314;50.890;4.722;2022-08-19T00:47:11;16.1;;;7.7;;
6561;SDS011;3314;50.890;4.722;2022-08-19T00:49:12;16.7;;;8.2;;
6561;SDS011;3314;50.890;4.722;2022-08-19T00:51:03;18.1;;;7.8;;
6561;SDS011;3314;50.890;4.722;2022-08-19T00:53:04;16.6;;;8.3;;
6561;SDS011;3314;50.890;4.722;2022-08-19T00:55:05;18.2;;;9.7;;
6561;SDS011;3314;50.890;4.722;2022-08-19T00:57:08;17.4;;;8.5;;
6561;SDS011;3314;50.890;4.722;2022-08-19T00:59:09;20.5;;;9.2;;
6561;SDS011;3314;50.890;4.722;2022-08-19T01:01:09;21.2;;;10.8;;
6561;SDS011;3314;50.890;4.722;2022-08-19T01:03:10;21.9;;;10.0;;
6561;SDS011;3314;50.890;4.722;2022-08-19T01:05:10;26.8;;;12.0;;
6561;SDS011;3314;50.890;4.722;2022-08-19T01:07:10;23.6;;;12.0;;
6561;SDS011;3314;50.890;4.722;2022-08-19T01:09:11;26.7;;;12.3;;
6561;SDS011;3314;50.890;4.722;2022-08-19T01:11:11;27.0;;;12.4;;
6561;SDS011;3314;50.890;4.722;2022-08-19T01:13:11;27.6;;;12.7;;
6561;SDS011;3314;50.890;4.722;2022-08-19T01:15:12;31.5;;;13.3;;
6561;SDS011;3314;50.890;4.722;2022-08-19T01:17:02;29.6;;;13.4;;
6561;SDS011;3314;50.890;4.722;2022-08-19T01:19:02;31.8;;;13.9;;
6561;SDS011;3314;50.890;4.722;2022-08-19T01:21:02;30.6;;;14.4;;
6561;SDS011;3314;50.890;4.722;2022-08-19T01:23:04;30.3;;;14.8;;
6561;SDS011;3314;50.890;4.722;2022-08-19T01:25:04;29.9;;;14.8;;
6561;SDS011;3314;50.890;4.722;2022-08-19T01:27:04;32.7;;;14.3;;
6561;SDS011;3314;50.890;4.722;2022-08-19T01:29:04;31.3;;;14.4;;
6561;SDS011;3314;50.890;4.722;2022-08-19T01:31:06;32.2;;;15.5;;
6561;SDS011;3314;50.890;4.722;2022-08-19T01:33:06;34.5;;;15.3;;
6561;SDS011;3314;50.890;4.722;2022-08-19T01:35:06;34.2;;;15.8;;
6561;SDS011;3314;50.890;4.722;2022-08-19T01:37:07;36.0;;;15.1;;
6561;SDS011;3314;50.890;4.722;2022-08-19T01:39:09;34.2;;;17.1;;
6561;SDS011;3314;50.890;4.722;2022-08-19T01:41:10;34.9;;;16.3;;
6561;SDS011;3314;50.890;4.722;2022-08-19T01:43:09;33.6;;;15.7;;
6561;SDS011;3314;50.890;4.722;2022-08-19T01:45:09;41.4;;;16.2;;
6561;SDS011;3314;50.890;4.722;2022-08-19T01:47:10;32.0;;;14.9;;
6561;SDS011;3314;50.890;4.722;2022-08-19T01:49:01;33.5;;;15.9;;
6561;SDS011;3314;50.890;4.722;2022-08-19T01:51:01;36.8;;;16.6;;
6561;SDS011;3314;50.890;4.722;2022-08-19T01:53:01;30.8;;;14.8;;
6561;SDS011;3314;50.890;4.722;2022-08-19T01:55:01;33.1;;;15.4;;
6561;SDS011;3314;50.890;4.722;2022-08-19T01:57:04;41.4;;;17.2;;
6561;SDS011;3314;50.890;4.722;2022-08-19T01:59:05;37.4;;;16.5;;
6561;SDS011;3314;50.890;4.722;2022-08-19T02:01:08;34.6;;;16.5;;
6561;SDS011;3314;50.890;4.722;2022-08-19T02:03:10;35.5;;;16.1;;
6561;SDS011;3314;50.890;4.722;2022-08-19T02:04:59;40.1;;;17.9;;
6561;SDS011;3314;50.890;4.722;2022-08-19T02:06:59;34.9;;;15.9;;
6561;SDS011;3314;50.890;4.722;2022-08-19T02:08:59;38.4;;;17.1;;
6561;SDS011;3314;50.890;4.722;2022-08-19T02:10:59;37.4;;;15.9;;
6561;SDS011;3314;50.890;4.722;2022-08-19T02:12:59;38.8;;;16.6;;
6561;SDS011;3314;50.890;4.722;2022-08-19T02:14:59;34.5;;;16.9;;
6561;SDS011;3314;50.890;4.722;2022-08-19T02:16:59;33.8;;;16.0;;
6561;SDS011;3314;50.890;4.722;2022-08-19T02:19:01;39.9;;;17.5;;
6561;SDS011;3314;50.890;4.722;2022-08-19T02:21:01;35.9;;;16.9;;
6561;SDS011;3314;50.890;4.722;2022-08-19T02:23:01;34.7;;;16.7;;
6561;SDS011;3314;50.890;4.722;2022-08-19T02:25:01;37.2;;;17.5;;
6561;SDS011;3314;50.890;4.722;2022-08-19T02:27:01;36.7;;;17.3;;
6561;SDS011;3314;50.890;4.722;2022-08-19T02:29:01;38.0;;;17.4;;
6561;SDS011;3314;50.890;4.722;2022-08-19T02:31:03;36.0;;;17.0;;
6561;SDS011;3314;50.890;4.722;2022-08-19T02:33:03;38.2;;;17.0;;
6561;SDS011;3314;50.890;4.722;2022-08-19T02:35:04;36.9;;;16.5;;
6561;SDS011;3314;50.890;4.722;2022-08-19T02:37:04;36.0;;;17.3;;
6561;SDS011;3314;50.890;4.722;2022-08-19T02:39:03;33.7;;;16.5;;
6561;SDS011;3314;50.890;4.722;2022-08-19T02:41:07;39.5;;;18.5;;
6561;SDS011;3314;50.890;4.722;2022-08-19T02:42:58;39.2;;;18.9;;
6561;SDS011;3314;50.890;4.722;2022-08-19T02:44:58;35.1;;;16.3;;
6561;SDS011;3314;50.890;4.722;2022-08-19T02:46:58;36.4;;;17.0;;
6561;SDS011;3314;50.890;4.722;2022-08-19T02:48:59;40.8;;;17.3;;
6561;SDS011;3314;50.890;4.722;2022-08-19T02:51:00;34.7;;;16.7;;
6561;SDS011;3314;50.890;4.722;2022-08-19T02:53:00;35.7;;;16.8;;
6561;SDS011;3314;50.890;4.722;2022-08-19T02:55:00;35.9;;;17.6;;
6561;SDS011;3314;50.890;4.722;2022-08-19T02:57:00;36.1;;;15.1;;
6561;SDS011;3314;50.890;4.722;2022-08-19T02:59:00;37.8;;;17.0;;
6561;SDS011;3314;50.890;4.722;2022-08-19T03:01:00;37.5;;;16.2;;
6561;SDS011;3314;50.890;4.722;2022-08-19T03:03:00;38.9;;;18.4;;
6561;SDS011;3314;50.890;4.722;2022-08-19T03:05:02;36.6;;;17.3;;
6561;SDS011;3314;50.890;4.722;2022-08-19T03:07:02;36.3;;;17.4;;
6561;SDS011;3314;50.890;4.722;2022-08-19T03:09:03;35.1;;;16.8;;
6561;SDS011;3314;50.890;4.722;2022-08-19T03:11:03;38.2;;;17.2;;
6561;SDS011;3314;50.890;4.722;2022-08-19T03:13:02;41.8;;;17.9;;
6561;SDS011;3314;50.890;4.722;2022-08-19T03:15:03;35.9;;;15.6;;
6561;SDS011;3314;50.890;4.722;2022-08-19T03:17:04;34.2;;;16.2;;
6561;SDS011;3314;50.890;4.722;2022-08-19T03:19:05;34.3;;;15.8;;
6561;SDS011;3314;50.890;4.722;2022-08-19T03:20:54;33.9;;;14.6;;
6561;SDS011;3314;50.890;4.722;2022-08-19T03:22:54;37.8;;;16.8;;
6561;SDS011;3314;50.890;4.722;2022-08-19T03:24:54;33.8;;;15.3;;
6561;SDS011;3314;50.890;4.722;2022-08-19T03:26:58;35.2;;;15.8;;
6561;SDS011;3314;50.890;4.722;2022-08-19T03:28:57;33.0;;;15.3;;
6561;SDS011;3314;50.890;4.722;2022-08-19T03:31:02;34.4;;;16.1;;
6561;SDS011;3314;50.890;4.722;2022-08-19T03:33:02;35.4;;;15.6;;
6561;SDS011;3314;50.890;4.722;2022-08-19T03:35:02;33.4;;;14.9;;
6561;SDS011;3314;50.890;4.722;2022-08-19T03:37:03;34.4;;;15.0;;
6561;SDS011;3314;50.890;4.722;2022-08-19T03:38:55;34.0;;;15.1;;
6561;SDS011;3314;50.890;4.722;2022-08-19T03:40:55;35.7;;;16.0;;
6561;SDS011;3314;50.890;4.722;2022-08-19T03:42:55;31.9;;;14.1;;
6561;SDS011;3314;50.890;4.722;2022-08-19T03:44:55;34.4;;;15.7;;
6561;SDS011;3314;50.890;4.722;2022-08-19T03:46:56;30.0;;;13.8;;
6561;SDS011;3314;50.890;4.722;2022-08-19T03:48:57;33.0;;;15.2;;
6561;SDS011;3314;50.890;4.722;2022-08-19T03:50:58;31.0;;;13.7;;
6561;SDS011;3314;50.890;4.722;2022-08-19T03:52:57;32.5;;;14.6;;
6561;SDS011;3314;50.890;4.722;2022-08-19T03:54:57;35.0;;;15.1;;
6561;SDS011;3314;50.890;4.722;2022-08-19T03:56:57;30.6;;;14.6;;
6561;SDS011;3314;50.890;4.722;2022-08-19T03:58:57;32.3;;;15.1;;
6561;SDS011;3314;50.890;4.722;2022-08-19T04:00:57;31.7;;;15.1;;
6561;SDS011;3314;50.890;4.722;2022-08-19T04:02:57;31.5;;;15.0;;
6561;SDS011;3314;50.890;4.722;2022-08-19T04:04:57;30.0;;;14.6;;
6561;SDS011;3314;50.890;4.722;2022-08-19T04:06:57;31.9;;;14.3;;
6561;SDS011;3314;50.890;4.722;2022-08-19T04:08:58;33.1;;;15.5;;
6561;SDS011;3314;50.890;4.722;2022-08-19T04:10:58;26.8;;;13.1;;
6561;SDS011;3314;50.890;4.722;2022-08-19T04:12:58;27.9;;;13.8;;
6561;SDS011;3314;50.890;4.722;2022-08-19T04:14:58;30.5;;;14.6;;
6561;SDS011;3314;50.890;4.722;2022-08-19T04:16:58;29.6;;;13.4;;
6561;SDS011;3314;50.890;4.722;2022-08-19T04:19:00;33.1;;;14.3;;
6561;SDS011;3314;50.890;4.722;2022-08-19T04:21:00;27.6;;;13.1;;
6561;SDS011;3314;50.890;4.722;2022-08-19T04:23:00;27.3;;;13.7;;
6561;SDS011;3314;50.890;4.722;2022-08-19T04:25:00;27.3;;;13.5;;
6561;SDS011;3314;50.890;4.722;2022-08-19T04:26:59;30.3;;;13.0;;
6561;SDS011;3314;50.890;4.722;2022-08-19T04:29:00;32.0;;;13.3;;
6561;SDS011;3314;50.890;4.722;2022-08-19T04:31:00;33.0;;;14.2;;
6561;SDS011;3314;50.890;4.722;2022-08-19T04:32:59;31.5;;;15.0;;
6561;SDS011;3314;50.890;4.722;2022-08-19T04:34:59;30.8;;;13.3;;
6561;SDS011;3314;50.890;4.722;2022-08-19T04:36:59;26.1;;;11.9;;
6561;SDS011;3314;50.890;4.722;2022-08-19T04:39:00;28.0;;;13.6;;
6561;SDS011;3314;50.890;4.722;2022-08-19T04:42:56;32.0;;;13.2;;
6561;SDS011;3314;50.890;4.722;2022-08-19T04:43:08;34.7;;;12.1;;
6561;SDS011;3314;50.890;4.722;2022-08-19T04:44:56;30.1;;;13.2;;
6561;SDS011;3314;50.890;4.722;2022-08-19T04:46:56;27.3;;;12.8;;
6561;SDS011;3314;50.890;4.722;2022-08-19T04:48:57;28.6;;;13.5;;
6561;SDS011;3314;50.890;4.722;2022-08-19T04:50:58;28.0;;;12.9;;
6561;SDS011;3314;50.890;4.722;2022-08-19T04:52:58;27.3;;;12.7;;
6561;SDS011;3314;50.890;4.722;2022-08-19T04:54:58;26.1;;;12.1;;
6561;SDS011;3314;50.890;4.722;2022-08-19T04:56:58;25.3;;;12.0;;
6561;SDS011;3314;50.890;4.722;2022-08-19T04:58:57;26.3;;;12.3;;
6561;SDS011;3314;50.890;4.722;2022-08-19T05:00:48;26.6;;;12.4;;
6561;SDS011;3314;50.890;4.722;2022-08-19T05:02:49;25.0;;;11.9;;
6561;SDS011;3314;50.890;4.722;2022-08-19T05:04:49;25.0;;;11.3;;
6561;SDS011;3314;50.890;4.722;2022-08-19T05:06:49;27.9;;;13.0;;
6561;SDS011;3314;50.890;4.722;2022-08-19T05:08:48;28.8;;;12.4;;
6561;SDS011;3314;50.890;4.722;2022-08-19T05:10:49;25.1;;;12.2;;
6561;SDS011;3314;50.890;4.722;2022-08-19T05:12:49;28.0;;;12.8;;
6561;SDS011;3314;50.890;4.722;2022-08-19T05:14:49;24.1;;;11.5;;
6561;SDS011;3314;50.890;4.722;2022-08-19T05:16:49;30.3;;;13.0;;
6561;SDS011;3314;50.890;4.722;2022-08-19T05:20:55;26.4;;;11.7;;
6561;SDS011;3314;50.890;4.722;2022-08-19T05:23:14;27.2;;;12.5;;
6561;SDS011;3314;50.890;4.722;2022-08-19T05:23:25;24.1;;;11.7;;
6561;SDS011;3314;50.890;4.722;2022-08-19T05:24:49;27.1;;;11.7;;
6561;SDS011;3314;50.890;4.722;2022-08-19T05:26:49;28.9;;;12.7;;
6561;SDS011;3314;50.890;4.722;2022-08-19T05:28:49;30.9;;;11.8;;
6561;SDS011;3314;50.890;4.722;2022-08-19T05:30:51;27.1;;;11.6;;
6561;SDS011;3314;50.890;4.722;2022-08-19T05:32:50;28.7;;;12.0;;
6561;SDS011;3314;50.890;4.722;2022-08-19T05:34:50;27.7;;;11.6;;
6561;SDS011;3314;50.890;4.722;2022-08-19T05:36:50;25.8;;;11.4;;
6561;SDS011;3314;50.890;4.722;2022-08-19T05:38:50;25.8;;;10.2;;
6561;SDS011;3314;50.890;4.722;2022-08-19T05:40:50;27.7;;;10.6;;
6561;SDS011;3314;50.890;4.722;2022-08-19T05:42:50;28.2;;;11.1;;
6561;SDS011;3314;50.890;4.722;2022-08-19T05:44:50;24.0;;;10.8;;
6561;SDS011;3314;50.890;4.722;2022-08-19T05:46:53;30.9;;;12.1;;
6561;SDS011;3314;50.890;4.722;2022-08-19T05:48:52;28.1;;;11.4;;
6561;SDS011;3314;50.890;4.722;2022-08-19T05:50:52;30.8;;;12.0;;
6561;SDS011;3314;50.890;4.722;2022-08-19T05:52:52;25.6;;;11.3;;
6561;SDS011;3314;50.890;4.722;2022-08-19T05:54:52;27.2;;;10.1;;
6561;SDS011;3314;50.890;4.722;2022-08-19T05:56:52;27.0;;;11.7;;
6561;SDS011;3314;50.890;4.722;2022-08-19T05:58:54;28.5;;;12.0;;
6561;SDS011;3314;50.890;4.722;2022-08-19T06:00:54;27.1;;;12.5;;
6561;SDS011;3314;50.890;4.722;2022-08-19T06:02:43;26.8;;;11.9;;
6561;SDS011;3314;50.890;4.722;2022-08-19T06:04:43;27.8;;;11.9;;
6561;SDS011;3314;50.890;4.722;2022-08-19T06:06:43;27.1;;;10.7;;
6561;SDS011;3314;50.890;4.722;2022-08-19T06:08:45;31.3;;;11.9;;
6561;SDS011;3314;50.890;4.722;2022-08-19T06:10:45;30.1;;;12.0;;
6561;SDS011;3314;50.890;4.722;2022-08-19T06:12:45;27.1;;;11.4;;
6561;SDS011;3314;50.890;4.722;2022-08-19T06:14:45;25.4;;;11.0;;
6561;SDS011;3314;50.890;4.722;2022-08-19T06:16:44;23.9;;;10.4;;
6561;SDS011;3314;50.890;4.722;2022-08-19T06:18:44;26.3;;;10.7;;
6561;SDS011;3314;50.890;4.722;2022-08-19T06:20:44;28.0;;;10.9;;
6561;SDS011;3314;50.890;4.722;2022-08-19T06:22:45;29.4;;;11.2;;
6561;SDS011;3314;50.890;4.722;2022-08-19T06:24:45;26.1;;;11.3;;
6561;SDS011;3314;50.890;4.722;2022-08-19T06:26:45;29.6;;;11.3;;
6561;SDS011;3314;50.890;4.722;2022-08-19T06:28:47;32.2;;;10.9;;
6561;SDS011;3314;50.890;4.722;2022-08-19T06:30:46;24.4;;;10.9;;
6561;SDS011;3314;50.890;4.722;2022-08-19T06:32:46;28.4;;;11.3;;
6561;SDS011;3314;50.890;4.722;2022-08-19T06:34:46;28.1;;;10.7;;
6561;SDS011;3314;50.890;4.722;2022-08-19T06:36:46;26.2;;;11.7;;
6561;SDS011;3314;50.890;4.722;2022-08-19T06:38:46;28.3;;;11.0;;
6561;SDS011;3314;50.890;4.722;2022-08-19T06:40:46;21.4;;;10.2;;
6561;SDS011;3314;50.890;4.722;2022-08-19T06:42:45;22.3;;;9.4;;
6561;SDS011;3314;50.890;4.722;2022-08-19T06:44:46;28.5;;;10.3;;
6561;SDS011;3314;50.890;4.722;2022-08-19T06:46:46;25.8;;;9.7;;
6561;SDS011;3314;50.890;4.722;2022-08-19T06:48:47;24.6;;;9.2;;
6561;SDS011;3314;50.890;4.722;2022-08-19T06:50:47;25.7;;;10.4;;
6561;SDS011;3314;50.890;4.722;2022-08-19T06:52:48;21.5;;;8.7;;
6561;SDS011;3314;50.890;4.722;2022-08-19T06:54:47;22.5;;;9.8;;
6561;SDS011;3314;50.890;4.722;2022-08-19T06:56:47;19.6;;;8.2;;
6561;SDS011;3314;50.890;4.722;2022-08-19T06:58:47;21.2;;;8.5;;
6561;SDS011;3314;50.890;4.722;2022-08-19T07:00:47;23.6;;;9.2;;
6561;SDS011;3314;50.890;4.722;2022-08-19T07:02:47;22.2;;;9.5;;
6561;SDS011;3314;50.890;4.722;2022-08-19T07:04:46;22.8;;;8.2;;
6561;SDS011;3314;50.890;4.722;2022-08-19T07:06:46;25.2;;;9.1;;
6561;SDS011;3314;50.890;4.722;2022-08-19T07:08:47;20.7;;;8.7;;
6561;SDS011;3314;50.890;4.722;2022-08-19T07:10:47;21.3;;;8.5;;
6561;SDS011;3314;50.890;4.722;2022-08-19T07:12:49;22.2;;;9.4;;
6561;SDS011;3314;50.890;4.722;2022-08-19T07:14:38;20.9;;;8.6;;
6561;SDS011;3314;50.890;4.722;2022-08-19T07:16:38;17.4;;;8.1;;
6561;SDS011;3314;50.890;4.722;2022-08-19T07:18:38;17.3;;;7.4;;
6561;SDS011;3314;50.890;4.722;2022-08-19T07:20:39;21.0;;;8.5;;
6561;SDS011;3314;50.890;4.722;2022-08-19T07:22:39;24.2;;;8.6;;
6561;SDS011;3314;50.890;4.722;2022-08-19T07:24:39;19.6;;;7.4;;
6561;SDS011;3314;50.890;4.722;2022-08-19T07:26:40;19.3;;;7.0;;
6561;SDS011;3314;50.890;4.722;2022-08-19T07:28:40;20.5;;;7.4;;
6561;SDS011;3314;50.890;4.722;2022-08-19T07:30:41;16.9;;;7.1;;
6561;SDS011;3314;50.890;4.722;2022-08-19T07:32:40;20.8;;;7.9;;
6561;SDS011;3314;50.890;4.722;2022-08-19T07:34:40;17.2;;;6.9;;
6561;SDS011;3314;50.890;4.722;2022-08-19T07:36:41;17.9;;;6.7;;
6561;SDS011;3314;50.890;4.722;2022-08-19T07:38:42;17.1;;;6.4;;
6561;SDS011;3314;50.890;4.722;2022-08-19T07:40:43;18.1;;;6.1;;
6561;SDS011;3314;50.890;4.722;2022-08-19T07:42:43;17.0;;;6.3;;
6561;SDS011;3314;50.890;4.722;2022-08-19T07:44:43;20.0;;;6.1;;
6561;SDS011;3314;50.890;4.722;2022-08-19T07:46:46;14.7;;;5.1;;
6561;SDS011;3314;50.890;4.722;2022-08-19T07:48:47;14.1;;;4.7;;
6561;SDS011;3314;50.890;4.722;2022-08-19T07:50:37;13.4;;;4.4;;
6561;SDS011;3314;50.890;4.722;2022-08-19T07:52:39;14.9;;;4.0;;
6561;SDS011;3314;50.890;4.722;2022-08-19T07:54:39;12.2;;;3.7;;
6561;SDS011;3314;50.890;4.722;2022-08-19T07:56:40;12.3;;;4.3;;
6561;SDS011;3314;50.890;4.722;2022-08-19T07:58:40;12.3;;;3.9;;
6561;SDS011;3314;50.890;4.722;2022-08-19T08:00:41;14.1;;;3.7;;
6561;SDS011;3314;50.890;4.722;2022-08-19T08:02:42;12.4;;;3.3;;
6561;SDS011;3314;50.890;4.722;2022-08-19T08:06:49;11.6;;;3.6;;
6561;SDS011;3314;50.890;4.722;2022-08-19T08:09:07;9.3;;;3.0;;
6561;SDS011;3314;50.890;4.722;2022-08-19T08:09:23;10.1;;;2.6;;
6561;SDS011;3314;50.890;4.722;2022-08-19T08:10:35;7.5;;;2.1;;
6561;SDS011;3314;50.890;4.722;2022-08-19T08:12:36;10.9;;;3.1;;
6561;SDS011;3314;50.890;4.722;2022-08-19T08:14:37;11.7;;;2.6;;
6561;SDS011;3314;50.890;4.722;2022-08-19T08:16:37;10.2;;;2.8;;
6561;SDS011;3314;50.890;4.722;2022-08-19T08:18:42;10.4;;;2.4;;
6561;SDS011;3314;50.890;4.722;2022-08-19T08:20:42;11.1;;;2.7;;
6561;SDS011;3314;50.890;4.722;2022-08-19T08:23:45;12.2;;;2.8;;
6561;SDS011;3314;50.890;4.722;2022-08-19T08:24:36;9.4;;;2.7;;
6561;SDS011;3314;50.890;4.722;2022-08-19T08:26:36;11.9;;;2.9;;
6561;SDS011;3314;50.890;4.722;2022-08-19T08:28:36;10.7;;;2.6;;
6561;SDS011;3314;50.890;4.722;2022-08-19T08:30:37;8.8;;;2.7;;
6561;SDS011;3314;50.890;4.722;2022-08-19T08:32:38;13.8;;;2.4;;
6561;SDS011;3314;50.890;4.722;2022-08-19T08:34:38;9.8;;;2.8;;
6561;SDS011;3314;50.890;4.722;2022-08-19T08:36:42;11.9;;;2.4;;
6561;SDS011;3314;50.890;4.722;2022-08-19T08:38:43;12.1;;;2.6;;
6561;SDS011;3314;50.890;4.722;2022-08-19T08:40:45;9.8;;;2.5;;
6561;SDS011;3314;50.890;4.722;2022-08-19T08:42:35;9.5;;;2.4;;
6561;SDS011;3314;50.890;4.722;2022-08-19T08:44:38;11.4;;;3.2;;
6561;SDS011;3314;50.890;4.722;2022-08-19T08:46:39;10.9;;;3.0;;
6561;SDS011;3314;50.890;4.722;2022-08-19T08:48:42;10.5;;;3.2;;
6561;SDS011;3314;50.890;4.722;2022-08-19T08:50:36;10.1;;;2.9;;
6561;SDS011;3314;50.890;4.722;2022-08-19T08:52:39;9.5;;;2.7;;
6561;SDS011;3314;50.890;4.722;2022-08-19T08:54:41;13.8;;;3.4;;
6561;SDS011;3314;50.890;4.722;2022-08-19T08:56:41;9.4;;;2.6;;
6561;SDS011;3314;50.890;4.722;2022-08-19T08:58:47;9.9;;;2.6;;
6561;SDS011;3314;50.890;4.722;2022-08-19T09:00:36;10.1;;;3.4;;
6561;SDS011;3314;50.890;4.722;2022-08-19T09:02:37;10.4;;;3.7;;
6561;SDS011;3314;50.890;4.722;2022-08-19T09:04:37;9.4;;;2.7;;
6561;SDS011;3314;50.890;4.722;2022-08-19T09:06:38;11.4;;;2.8;;
6561;SDS011;3314;50.890;4.722;2022-08-19T09:08:42;12.4;;;2.9;;
6561;SDS011;3314;50.890;4.722;2022-08-19T09:10:34;10.4;;;2.5;;
6561;SDS011;3314;50.890;4.722;2022-08-19T09:12:40;9.1;;;2.7;;
6561;SDS011;3314;50.890;4.722;2022-08-19T09:14:34;10.8;;;2.7;;
6561;SDS011;3314;50.890;4.722;2022-08-19T09:16:36;9.8;;;2.6;;
6561;SDS011;3314;50.890;4.722;2022-08-19T09:18:40;9.4;;;2.5;;
6561;SDS011;3314;50.890;4.722;2022-08-19T09:20:40;11.1;;;2.9;;
6561;SDS011;3314;50.890;4.722;2022-08-19T09:22:41;10.2;;;3.2;;
6561;SDS011;3314;50.890;4.722;2022-08-19T09:24:41;12.6;;;3.4;;
6561;SDS011;3314;50.890;4.722;2022-08-19T09:26:42;11.8;;;3.0;;
6561;SDS011;3314;50.890;4.722;2022-08-19T09:28:44;9.3;;;2.5;;
6561;SDS011;3314;50.890;4.722;2022-08-19T09:30:34;15.2;;;2.6;;
6561;SDS011;3314;50.890;4.722;2022-08-19T09:32:34;9.0;;;2.5;;
6561;SDS011;3314;50.890;4.722;2022-08-19T09:34:34;9.5;;;2.1;;
6561;SDS011;3314;50.890;4.722;2022-08-19T09:36:36;12.2;;;2.7;;
6561;SDS011;3314;50.890;4.722;2022-08-19T09:38:36;10.4;;;2.6;;
6561;SDS011;3314;50.890;4.722;2022-08-19T09:40:36;8.5;;;2.3;;
6561;SDS011;3314;50.890;4.722;2022-08-19T09:42:36;9.2;;;2.2;;
6561;SDS011;3314;50.890;4.722;2022-08-19T09:44:36;10.5;;;2.1;;
6561;SDS011;3314;50.890;4.722;2022-08-19T09:46:36;7.5;;;2.2;;
6561;SDS011;3314;50.890;4.722;2022-08-19T09:48:36;8.7;;;2.1;;
6561;SDS011;3314;50.890;4.722;2022-08-19T09:50:38;9.1;;;2.3;;
6561;SDS011;3314;50.890;4.722;2022-08-19T09:52:38;8.9;;;2.5;;
6561;SDS011;3314;50.890;4.722;2022-08-19T09:54:38;7.9;;;2.1;;
6561;SDS011;3314;50.890;4.722;2022-08-19T09:56:38;8.1;;;2.1;;
6561;SDS011;3314;50.890;4.722;2022-08-19T09:58:38;8.6;;;2.3;;
6561;SDS011;3314;50.890;4.722;2022-08-19T10:00:38;9.8;;;2.3;;
6561;SDS011;3314;50.890;4.722;2022-08-19T10:02:38;8.5;;;2.4;;
6561;SDS011;3314;50.890;4.722;2022-08-19T10:06:44;8.8;;;2.1;;
6561;SDS011;3314;50.890;4.722;2022-08-19T10:06:56;10.1;;;2.2;;
6561;SDS011;3314;50.890;4.722;2022-08-19T10:08:34;11.7;;;2.8;;
6561;SDS011;3314;50.890;4.722;2022-08-19T10:10:35;8.5;;;2.2;;
6561;SDS011;3314;50.890;4.722;2022-08-19T10:12:36;8.3;;;2.3;;
6561;SDS011;3314;50.890;4.722;2022-08-19T10:14:36;10.3;;;2.2;;
6561;SDS011;3314;50.890;4.722;2022-08-19T10:16:36;9.0;;;2.2;;
6561;SDS011;3314;50.890;4.722;2022-08-19T10:18:36;7.9;;;2.1;;
6561;SDS011;3314;50.890;4.722;2022-08-19T10:20:37;8.9;;;2.3;;
6561;SDS011;3314;50.890;4.722;2022-08-19T10:22:37;8.5;;;2.3;;
6561;SDS011;3314;50.890;4.722;2022-08-19T10:24:37;9.9;;;2.2;;
6561;SDS011;3314;50.890;4.722;2022-08-19T10:26:38;11.9;;;2.7;;
6561;SDS011;3314;50.890;4.722;2022-08-19T10:28:38;8.9;;;2.2;;
6561;SDS011;3314;50.890;4.722;2022-08-19T10:30:38;8.1;;;2.1;;
6561;SDS011;3314;50.890;4.722;2022-08-19T10:32:38;8.4;;;2.2;;
6561;SDS011;3314;50.890;4.722;2022-08-19T10:34:38;8.7;;;2.8;;
6561;SDS011;3314;50.890;4.722;2022-08-19T10:36:39;10.5;;;3.2;;
6561;SDS011;3314;50.890;4.722;2022-08-19T10:38:39;8.7;;;2.6;;
6561;SDS011;3314;50.890;4.722;2022-08-19T10:40:38;9.4;;;2.3;;
6561;SDS011;3314;50.890;4.722;2022-08-19T10:42:38;8.6;;;2.4;;
6561;SDS011;3314;50.890;4.722;2022-08-19T10:44:38;10.5;;;2.7;;
6561;SDS011;3314;50.890;4.722;2022-08-19T10:46:38;9.6;;;2.4;;
6561;SDS011;3314;50.890;4.722;2022-08-19T10:48:38;8.2;;;2.0;;
6561;SDS011;3314;50.890;4.722;2022-08-19T10:52:47;8.0;;;2.1;;
6561;SDS011;3314;50.890;4.722;2022-08-19T10:53:03;9.6;;;2.6;;
6561;SDS011;3314;50.890;4.722;2022-08-19T10:56:45;10.0;;;3.0;;
6561;SDS011;3314;50.890;4.722;2022-08-19T10:56:57;7.8;;;2.2;;
6561;SDS011;3314;50.890;4.722;2022-08-19T10:58:32;8.1;;;2.5;;
6561;SDS011;3314;50.890;4.722;2022-08-19T11:00:32;10.0;;;2.6;;
6561;SDS011;3314;50.890;4.722;2022-08-19T11:02:33;8.5;;;2.3;;
6561;SDS011;3314;50.890;4.722;2022-08-19T11:04:33;9.2;;;2.2;;
6561;SDS011;3314;50.890;4.722;2022-08-19T11:06:33;8.9;;;2.4;;
6561;SDS011;3314;50.890;4.722;2022-08-19T11:08:35;8.5;;;2.5;;
6561;SDS011;3314;50.890;4.722;2022-08-19T11:10:35;8.0;;;2.0;;
6561;SDS011;3314;50.890;4.722;2022-08-19T11:12:36;9.5;;;2.7;;
6561;SDS011;3314;50.890;4.722;2022-08-19T11:14:36;10.2;;;1.9;;
6561;SDS011;3314;50.890;4.722;2022-08-19T11:16:36;10.2;;;2.1;;
6561;SDS011;3314;50.890;4.722;2022-08-19T11:18:37;8.7;;;2.5;;
6561;SDS011;3314;50.890;4.722;2022-08-19T11:20:37;9.7;;;1.7;;
6561;SDS011;3314;50.890;4.722;2022-08-19T11:22:37;11.0;;;2.0;;
6561;SDS011;3314;50.890;4.722;2022-08-19T11:24:37;10.1;;;2.0;;
6561;SDS011;3314;50.890;4.722;2022-08-19T11:26:37;9.1;;;1.8;;
6561;SDS011;3314;50.890;4.722;2022-08-19T11:28:37;8.2;;;2.1;;
6561;SDS011;3314;50.890;4.722;2022-08-19T11:30:37;10.8;;;2.3;;
6561;SDS011;3314;50.890;4.722;2022-08-19T11:32:36;10.3;;;1.9;;
6561;SDS011;3314;50.890;4.722;2022-08-19T11:34:37;8.0;;;2.0;;
6561;SDS011;3314;50.890;4.722;2022-08-19T11:36:38;13.8;;;2.4;;
6561;SDS011;3314;50.890;4.722;2022-08-19T11:38:38;8.8;;;1.7;;
6561;SDS011;3314;50.890;4.722;2022-08-19T11:40:35;8.6;;;2.1;;
6561;SDS011;3314;50.890;4.722;2022-08-19T11:43:06;8.8;;;1.8;;
6561;SDS011;3314;50.890;4.722;2022-08-19T11:44:30;8.6;;;1.9;;
6561;SDS011;3314;50.890;4.722;2022-08-19T11:46:30;6.8;;;1.5;;
6561;SDS011;3314;50.890;4.722;2022-08-19T11:48:30;8.6;;;2.4;;
6561;SDS011;3314;50.890;4.722;2022-08-19T11:50:30;8.5;;;2.0;;
6561;SDS011;3314;50.890;4.722;2022-08-19T11:52:30;11.2;;;1.8;;
6561;SDS011;3314;50.890;4.722;2022-08-19T11:54:29;8.9;;;2.2;;
6561;SDS011;3314;50.890;4.722;2022-08-19T11:56:29;11.7;;;2.4;;
6561;SDS011;3314;50.890;4.722;2022-08-19T11:58:30;8.8;;;2.4;;
6561;SDS011;3314;50.890;4.722;2022-08-19T12:00:30;10.5;;;2.3;;
6561;SDS011;3314;50.890;4.722;2022-08-19T12:02:29;10.9;;;2.7;;
6561;SDS011;3314;50.890;4.722;2022-08-19T12:04:29;9.4;;;2.8;;
6561;SDS011;3314;50.890;4.722;2022-08-19T12:06:30;8.4;;;2.5;;
6561;SDS011;3314;50.890;4.722;2022-08-19T12:08:30;8.5;;;2.4;;
6561;SDS011;3314;50.890;4.722;2022-08-19T12:10:30;10.0;;;2.6;;
6561;SDS011;3314;50.890;4.722;2022-08-19T12:12:29;9.4;;;2.7;;
6561;SDS011;3314;50.890;4.722;2022-08-19T12:14:32;8.6;;;2.6;;
6561;SDS011;3314;50.890;4.722;2022-08-19T12:16:32;8.7;;;2.5;;
6561;SDS011;3314;50.890;4.722;2022-08-19T12:18:31;11.8;;;2.6;;
6561;SDS011;3314;50.890;4.722;2022-08-19T12:20:33;10.0;;;2.9;;
6561;SDS011;3314;50.890;4.722;2022-08-19T12:22:33;9.8;;;2.4;;
6561;SDS011;3314;50.890;4.722;2022-08-19T12:24:33;10.5;;;3.4;;
6561;SDS011;3314;50.890;4.722;2022-08-19T12:26:33;11.2;;;3.4;;
6561;SDS011;3314;50.890;4.722;2022-08-19T12:28:33;12.4;;;3.6;;
6561;SDS011;3314;50.890;4.722;2022-08-19T12:30:32;11.8;;;3.8;;
6561;SDS011;3314;50.890;4.722;2022-08-19T12:32:32;13.7;;;4.4;;
6561;SDS011;3314;50.890;4.722;2022-08-19T12:34:32;10.2;;;3.4;;